Startpagina
METAR-TAF:

METAR-TAF

Vliegvelden :

Luchthaven Athene

Athene, Griekenland

breedte: 37-56N, lengte: 023-56E, hoogte: 94 m

Actueel weer

Dit bericht is 28 minuten geleden gemaakt, om 17:20 UTC
Wind 1 kt uit variabele richting
Temperatuur 18°C
Vochtigheid 68%
Druk 1022 hPa
Zicht 10 km of meer
Weinig wolken op 3000 ft

METAR: LGAV 251720Z VRB01KT 9999 FEW030 18/12 Q1022 NOSIG

Tijdstip: 20:48 (17:48 UTC)

Verwachting

Dit bericht is 48 minuten geleden gemaakt, om 17:00 UTC
Verwachting geldig van 25 om 18 UTC tot 26 om 18 UTC
Wind 5 kt uit variabele richting
Zicht 10 km of meer
Weinig wolken op 2000 ft
Verspreide wolken op 7000 ft
Tijdelijke
van 25 om 18 UTC tot 26 om 06 UTC
Gebroken wolken op 7000 ft
Wijzigt naar
van 26 om 07 UTC tot 26 om 09 UTC
Wind 10 kt uit het noordnoordoosten

TAF: LGAV 251700Z 2518/2618 VRB05KT 9999 FEW020 SCT070 TEMPO 2518/2606 BKN070 BECMG 2607/2609 02010KT

Waarnemingen en weersverwachtingen van meer dan 4000 vliegvelden (METAR en TAF).

De beschikbare stations zijn de gele en rode punten op de kaart.

Ga met uw muis naar het station om de naam te zien.

Klik dan om waarnemingen en weersverwachtingen te zien.

kaart wijzigen: klik op de groene knoppen met een zwart kruis om in te zoomen, op de groene knop met een streepje om uit te zoomen of op de groene pijlen voor aangrenzende kaarten.


METAR-TAF: